This is the latest recevied weather packets stored in our database for station/object EB1BCG-1. If no packets are shown the sender has not sent any weather packets the latest 10 day(s).
| Time | Temp. | Humidity | Pressure | Rain* | Wind** | Luminosity | Snow |
|---|---|---|---|---|---|---|---|
| 1777993049 | 15.56° C | 46% | 1010 hPa | 0 mm | 0 m/s | - | - |
| 1777992439 | 16.11° C | 50% | 1010 hPa | 0 mm | 0 m/s | - | - |
| 1777991832 | 15.56° C | 49% | 1010.1 hPa | 0 mm | 0 m/s | - | - |
| 1777991229 | 13.33° C | 46% | 1010.1 hPa | 0 mm | 0 m/s | - | - |
| 1777990620 | 17.22° C | 43% | 1010 hPa | 0 mm | 0 m/s | - | - |
| 1777990013 | 18.33° C | 43% | 1009.9 hPa | 0 mm | 0 m/s | - | - |
| 1777989409 | 17.78° C | 43% | 1010 hPa | 0 mm | 0 m/s | - | - |
| 1777988799 | 16.67° C | 44% | 1010.1 hPa | 0 mm | 0 m/s | - | - |
| 1777988192 | 18.33° C | 46% | 1009.9 hPa | 0 mm | 0 m/s | - | - |
| 1777987584 | 17.78° C | 43% | 1010 hPa | 0 mm | 0 m/s | - | - |
| 1777986976 | 16.67° C | 46% | 1010 hPa | 0 mm | 0 m/s | - | - |
| 1777986369 | 15° C | 42% | 1010.2 hPa | 0 mm | 0 m/s | - | - |
| 1777985762 | 15° C | 48% | 1010.3 hPa | 0 mm | 0 m/s | - | - |
| 1777985155 | 12.78° C | 48% | 1010.5 hPa | 0 mm | 0 m/s | - | - |
| 1777983943 | 13.33° C | 45% | 1010.5 hPa | 0 mm | 0 m/s | - | - |
| 1777983337 | 13.33° C | 48% | 1010.5 hPa | 0 mm | 0 m/s | - | - |
| 1777982730 | 15.56° C | 48% | 1010.6 hPa | 0 mm | 0 m/s | - | - |
| 1777982122 | 15.56° C | 53% | 1010.6 hPa | 0 mm | 0 m/s | - | - |
| 1777981518 | 13.89° C | 48% | 1010.7 hPa | 0 mm | 0 m/s | - | - |
| 1777980909 | 13.33° C | 44% | 1011.1 hPa | 0 mm | 0 m/s | - | - |
| 1777980310 | 15° C | 45% | 1010.8 hPa | 0 mm | 0 m/s | - | - |
| 1777979696 | 14.44° C | 47% | 1011 hPa | 0 mm | 0 m/s | - | - |
| 1777979090 | 15.56° C | 46% | 1011 hPa | 0 mm | 0 m/s | - | - |
| 1777978483 | 15° C | 47% | 1011.1 hPa | 0 mm | 0 m/s | - | - |
| 1777977877 | 15° C | 49% | 1011.3 hPa | 0 mm | 0 m/s | - | - |
* Rain latest hour (hover to see other rain measurements)
** Current wind speed in m/s (hover to see current wind gust speed)